AirNav   Pilot Hours Calculator
 
 1097 users online  

6KY8 Gateway Industrial Park Heliport
Jenkins, Kentucky, USA

GOING TO JENKINS?


FAA INFORMATION EFFECTIVE 15 JULY 2021

Location

FAA Identifier: 6KY8
Lat/Long: 37-09-35.9000N 082-39-49.6000W
37-09.598333N 082-39.826667W
37.1599722,-82.6637778
(estimated)
Elevation: 1770 ft. / 539 m (estimated)
From city: 3 miles SW of JENKINS, KY
Time zone: UTC -4 (UTC -5 during Standard Time)
Zip code: 41825

Heliport Operations

Heliport use: Private use. Permission required prior to landing
Activation date: 10/2010
Control tower: no
ARTCC: INDIANAPOLIS CENTER
FSS: LOUISVILLE FLIGHT SERVICE STATION
Attendance: UNATNDD
Wind indicator: yes
Segmented circle: no
Lights: SS-SR

Heliport Communications

WX AWOS-3 at LNP (12 nm SE): 118.6 (276-328-3727)

Nearby radio navigation aids

VOR radial/distance  VOR name  Freq  Var
GZGr308/34.5GLADE SPRING VOR/DME110.2002W

Heliport Services

Fuel available: A

Runway Information

Helipad H1

Dimensions: 40 x 40 ft. / 12 x 12 m
Surface: concrete
Runway edge lights: PERI
Latitude: 37-09.598333N
Longitude: 082-39.826667W
Elevation: 1770.0 ft.
Traffic pattern: leftleft
Obstructions: bldg
26 FT BLDG 30 FT SE OF PAD.

Heliport Ownership and Management from official FAA records

Ownership: Publicly-owned
Owner: LETCHER COUNTY FISCAL COURT
156 MAIN ST
WHITESBURG, KY 41858
Phone 606-633-2129
Manager: COUNTY JUDGE EXECUTIVE
156 MAIN ST., SUITE 107
WHITESBURG, KY 41858
Phone 606-633-2129

Heliport Operational Statistics

Aircraft based on the field: 1
Helicopters: 1
    

Additional Remarks

OWNER DESIRES ARPT NOT BE CHARTED.
FOR CD CTC INDIANAPOLIS ARTCC AT 317-247-2411.

Instrument Procedures

There are no published instrument procedures at 6KY8.

Some nearby airports with instrument procedures:

KLNP - Lonesome Pine Airport (12 nm SE)
KPBX - Pike County Airport-Hatcher Field (25 nm N)
KCPF - Wendell H Ford Airport (32 nm NW)
KSJS - Big Sandy Regional Airport (35 nm N)
I35 - Tucker-Guthrie Memorial Airport (38 nm SW)
 
Loc | Ops | Rwys | IFR | FBO | Links
Com | Nav | Svcs | Stats | Notes
Aerial photo
No photo
 
Sectional chart

 
Airport distance calculator
Flying to Gateway Industrial Park Heliport? Find the distance to fly.

From to 6KY8

Sunrise and sunset
Times for 01-Aug-2021
 Local
(UTC-4)
 Zulu
(UTC)
Morning civil twilight06:0810:08
Sunrise06:3610:36
Sunset20:3700:37
Evening civil twilight21:0601:06

Current date and time
Zulu (UTC)  01-Aug-2021 17:27:43
Local (UTC-4)  01-Aug-2021 13:27:43
 
METAR
KLNP 
14nm SE 
011715Z AUTO 28008KT 10SM BKN013 BKN022 BKN040 21/18 A3005 RMK AO2
KPBX 
25nm N 
011715Z AUTO 24004KT 10SM BKN030 BKN036 24/16 A2999 RMK AO2 T02420161
TAF
KSJS 
35nm N 
011140Z 0112/0212 VRB03KT 2SM BR VCSH OVC002 FM011300 VRB03KT P6SM VCSH OVC015 FM011500 VRB04KT P6SM VCSH BKN025 FM011800 VRB04KT P6SM BKN035
KJKL 
41nm NW 
011140Z 0112/0212 VRB03KT P6SM VCSH BKN015 FM011600 VRB04KT P6SM BKN040
KTRI 
43nm S 
011431Z 0115/0212 25007KT 4SM -SHRA BR BKN009 OVC025 FM011700 26007KT P6SM BKN050 FM012200 28010KT P6SM OVC100 FM020900 00000KT 4SM BR BKN030
NOTAMs
Click for the latest NOTAMs
NOTAMs are issued by the DoD/FAA and will open in a separate window not controlled by AirNav.

 

 
 

Would you like to see your business listed on this page?

 If your business provides an interesting product or service to pilots, flight crews, aircraft, or users of the Gateway Industrial Park Heliport, you should consider listing it here.  To start the listing process, click on the button below
 
Add a business
 

Other Pages about Gateway Industrial Park Heliport

Update a link
 
Copyright © AirNav, LLC. All rights reserved. Privacy Policy  Contact